Time;durP1;ratioP1;P1;durP2;ratioP2;P2;SDS_P1;SDS_P2;PMS_P1;PMS_P2;Temp;Humidity;BMP_temperature;BMP_pressure;BME280_temperature;BME280_humidity;BME280_pressure;Samples;Min_cycle;Max_cycle;Signal;HPM_P1;HPM_P2
2023/11/18 00:01:45;;;;;;;8.23;3.50;;;8.70;93.70;;;;;;5091247;28;20074;-70
2023/11/18 00:04:15;;;;;;;8.40;3.20;;;8.60;93.60;;;;;;5081462;28;20035;-70
2023/11/18 00:06:44;;;;;;;5.10;2.73;;;8.50;93.50;;;;;;5072797;28;20016;-70
2023/11/18 00:09:14;;;;;;;4.40;2.63;;;8.60;93.40;;;;;;5072981;28;20509;-70
2023/11/18 00:11:42;;;;;;;3.07;1.63;;;8.60;93.10;;;;;;5072827;28;20073;-70
2023/11/18 00:14:10;;;;;;;3.43;1.53;;;8.60;92.60;;;;;;5072266;28;20478;-69
2023/11/18 00:16:36;;;;;;;4.40;2.27;;;8.60;92.40;;;;;;5072511;28;20051;-70
2023/11/18 00:19:04;;;;;;;3.50;2.00;;;8.60;92.10;;;;;;5072593;28;20031;-70
2023/11/18 00:21:30;;;;;;;6.47;2.00;;;8.70;92.00;;;;;;5072811;28;20012;-70
2023/11/18 00:23:56;;;;;;;3.20;1.90;;;8.70;92.10;;;;;;5072787;28;20077;-69
2023/11/18 00:26:22;;;;;;;2.53;1.50;;;8.70;91.70;;;;;;5072541;28;20500;-70
2023/11/18 00:28:51;;;;;;;5.47;2.00;;;8.70;91.40;;;;;;5072443;28;20496;-70
2023/11/18 00:31:16;;;;;;;3.13;1.60;;;8.70;91.30;;;;;;5072161;28;20461;-70
2023/11/18 00:33:43;;;;;;;3.10;1.57;;;8.70;91.20;;;;;;5072167;28;20053;-70
2023/11/18 00:36:09;;;;;;;3.77;1.40;;;8.70;90.50;;;;;;5072297;28;20024;-70
2023/11/18 00:38:34;;;;;;;3.10;1.60;;;8.60;90.40;;;;;;5072553;28;20151;-69
2023/11/18 00:41:00;;;;;;;5.90;1.53;;;8.70;90.40;;;;;;5072652;28;20044;-70
2023/11/18 00:43:26;;;;;;;4.80;1.33;;;8.70;90.20;;;;;;5072727;28;20031;-70
2023/11/18 00:45:52;;;;;;;7.13;3.60;;;8.70;90.10;;;;;;5072442;28;20056;-70
2023/11/18 00:48:17;;;;;;;6.47;3.80;;;8.70;90.20;;;;;;5072239;28;20060;-70
2023/11/18 00:50:43;;;;;;;10.87;6.10;;;8.50;90.40;;;;;;5072279;28;20030;-70
2023/11/18 00:53:10;;;;;;;11.87;6.50;;;8.40;91.00;;;;;;5072352;28;20039;-70
2023/11/18 00:55:36;;;;;;;9.70;5.70;;;8.30;91.40;;;;;;5074902;28;20039;-70
2023/11/18 00:58:02;;;;;;;9.53;5.67;;;8.20;91.90;;;;;;5076555;28;20024;-70
2023/11/18 01:00:27;;;;;;;9.27;4.53;;;8.10;92.50;;;;;;5076425;28;20046;-69
2023/11/18 01:02:54;;;;;;;8.43;4.70;;;8.10;92.80;;;;;;5076220;28;20025;-70
2023/11/18 01:05:20;;;;;;;6.20;3.83;;;8.10;92.90;;;;;;5076056;28;20025;-70
2023/11/18 01:07:46;;;;;;;6.97;3.80;;;8.00;92.80;;;;;;5075906;28;20027;-70
2023/11/18 01:10:13;;;;;;;5.80;3.70;;;7.90;93.20;;;;;;5076295;28;20024;-70
2023/11/18 01:12:40;;;;;;;8.67;4.33;;;7.90;93.70;;;;;;5075924;28;20029;-70
2023/11/18 01:15:06;;;;;;;5.53;3.53;;;7.90;94.10;;;;;;5076319;28;20051;-69
2023/11/18 01:17:33;;;;;;;7.03;3.70;;;7.90;94.20;;;;;;5076210;28;20092;-70
2023/11/18 01:20:01;;;;;;;7.20;3.40;;;7.90;94.40;;;;;;5076290;28;20504;-69
2023/11/18 01:22:26;;;;;;;6.20;3.60;;;7.90;94.60;;;;;;5076035;28;20063;-70
2023/11/18 01:24:52;;;;;;;9.60;4.13;;;7.90;94.30;;;;;;5075908;28;20487;-70
2023/11/18 01:27:19;;;;;;;6.57;3.30;;;7.90;94.10;;;;;;5075578;28;20065;-70
2023/11/18 01:29:46;;;;;;;5.70;3.40;;;7.90;94.10;;;;;;5075683;28;20120;-70
2023/11/18 01:32:13;;;;;;;4.83;3.20;;;7.90;94.30;;;;;;5075509;28;20453;-70
2023/11/18 01:34:40;;;;;;;7.93;3.30;;;7.90;94.40;;;;;;5075655;28;20060;-69
2023/11/18 01:37:09;;;;;;;8.70;3.13;;;7.90;94.30;;;;;;5075715;28;20035;-70
2023/11/18 01:39:35;;;;;;;4.60;3.10;;;7.90;94.30;;;;;;5075456;28;20040;-70
2023/11/18 01:42:02;;;;;;;5.63;3.20;;;7.90;94.20;;;;;;5075077;28;20032;-70
2023/11/18 01:44:29;;;;;;;5.20;3.10;;;7.90;94.30;;;;;;5075298;28;20116;-70
2023/11/18 01:46:58;;;;;;;8.43;2.97;;;7.90;94.00;;;;;;5075351;28;20033;-70
2023/11/18 01:49:27;;;;;;;5.03;2.70;;;7.90;94.20;;;;;;5075504;28;20103;-70
2023/11/18 01:51:53;;;;;;;5.83;2.50;;;8.00;94.10;;;;;;5075464;28;20085;-70
2023/11/18 01:54:21;;;;;;;7.60;2.50;;;7.90;94.00;;;;;;5075207;28;20064;-70
2023/11/18 01:56:48;;;;;;;6.70;2.90;;;7.90;94.00;;;;;;5075310;28;20021;-70
2023/11/18 01:59:18;;;;;;;4.30;2.50;;;7.90;93.80;;;;;;5072708;28;20131;-69
2023/11/18 02:01:57;;;;;;;4.03;2.20;;;7.90;93.90;;;;;;5072571;28;20036;-70
2023/11/18 02:04:23;;;;;;;4.10;2.40;;;7.90;93.90;;;;;;5073298;28;20415;-69
2023/11/18 02:06:50;;;;;;;5.77;2.40;;;7.90;93.90;;;;;;5074186;28;20046;-70
2023/11/18 02:09:28;;;;;;;4.43;3.13;;;7.90;93.60;;;;;;5074285;28;20021;-70
2023/11/18 02:11:57;;;;;;;5.37;2.93;;;8.00;93.30;;;;;;5073195;28;20377;-69
2023/11/18 02:14:26;;;;;;;4.50;2.37;;;7.90;93.40;;;;;;5074980;28;20127;-70
2023/11/18 02:16:55;;;;;;;6.77;2.77;;;7.80;93.50;;;;;;5074664;28;20027;-70
2023/11/18 02:19:24;;;;;;;4.77;2.60;;;7.80;93.30;;;;;;5074706;28;20031;-69
2023/11/18 02:21:53;;;;;;;4.10;2.73;;;7.80;93.20;;;;;;5074245;28;20029;-69
2023/11/18 02:24:27;;;;;;;4.40;2.60;;;7.80;93.40;;;;;;5074623;28;20031;-69
2023/11/18 02:26:56;;;;;;;4.27;2.63;;;7.70;93.30;;;;;;5107137;28;20418;-69
2023/11/18 02:29:22;;;;;;;8.50;2.60;;;7.70;93.70;;;;;;5074461;28;20021;-69
2023/11/18 02:31:52;;;;;;;4.50;2.50;;;7.70;93.80;;;;;;5072968;28;20107;-69
2023/11/18 02:34:23;;;;;;;4.37;2.80;;;7.70;93.80;;;;;;5074300;28;20507;-69
2023/11/18 02:36:50;;;;;;;5.50;2.83;;;7.70;93.70;;;;;;5072734;28;20078;-69
2023/11/18 02:39:35;;;;;;;8.23;3.07;;;7.60;93.60;;;;;;5074070;28;20508;-69
2023/11/18 02:42:03;;;;;;;6.53;2.33;;;7.60;93.80;;;;;;5074176;28;20028;-69
2023/11/18 02:44:32;;;;;;;5.93;2.83;;;7.60;94.10;;;;;;5074150;28;20032;-70
2023/11/18 02:46:58;;;;;;;6.03;2.90;;;7.60;94.10;;;;;;5074161;28;20024;-69
2023/11/18 02:49:24;;;;;;;8.20;2.50;;;7.60;93.80;;;;;;5074040;28;20025;-70
2023/11/18 02:51:50;;;;;;;6.00;2.27;;;7.50;93.90;;;;;;5074152;28;20035;-69
2023/11/18 02:54:16;;;;;;;6.90;2.60;;;7.50;93.80;;;;;;5074219;28;20036;-69
2023/11/18 02:56:42;;;;;;;5.23;2.77;;;7.50;93.70;;;;;;5073984;28;20341;-70
2023/11/18 02:59:07;;;;;;;7.20;2.37;;;7.50;93.70;;;;;;5073838;28;20027;-70
2023/11/18 03:01:34;;;;;;;4.43;2.30;;;7.50;94.00;;;;;;5074052;28;20055;-69
2023/11/18 03:04:00;;;;;;;5.93;2.43;;;7.50;93.70;;;;;;5106521;28;20456;-70
2023/11/18 03:06:26;;;;;;;6.17;2.50;;;7.50;94.00;;;;;;5073846;28;20039;-70
2023/11/18 03:08:52;;;;;;;7.70;2.70;;;7.50;94.00;;;;;;5073774;28;20412;-70
2023/11/18 03:11:19;;;;;;;4.47;2.40;;;7.50;94.20;;;;;;5073918;28;20530;-70
2023/11/18 03:13:48;;;;;;;8.67;2.57;;;7.50;94.20;;;;;;5073605;28;20028;-69
2023/11/18 03:16:14;;;;;;;9.17;2.30;;;7.50;94.10;;;;;;5073991;28;20074;-70
2023/11/18 03:18:43;;;;;;;3.70;2.00;;;7.50;94.00;;;;;;5073017;28;20115;-70
2023/11/18 03:21:12;;;;;;;3.40;2.00;;;7.40;93.80;;;;;;5073352;28;20012;-70
2023/11/18 03:23:41;;;;;;;4.57;2.10;;;7.40;94.00;;;;;;5073586;28;20036;-70
2023/11/18 03:26:10;;;;;;;3.50;2.20;;;7.40;94.00;;;;;;5073597;28;20468;-69
2023/11/18 03:28:40;;;;;;;7.90;2.37;;;7.40;94.00;;;;;;5073402;28;20472;-70
2023/11/18 03:31:06;;;;;;;3.47;2.20;;;7.40;93.70;;;;;;5073607;28;20472;-70
2023/11/18 03:33:32;;;;;;;3.27;1.70;;;7.40;93.60;;;;;;5073227;28;20044;-69
2023/11/18 03:35:58;;;;;;;5.20;2.67;;;7.30;93.90;;;;;;5073252;28;20025;-70
2023/11/18 03:38:24;;;;;;;5.87;2.43;;;7.30;93.80;;;;;;5105761;28;20026;-70
2023/11/18 03:40:52;;;;;;;3.87;2.00;;;7.20;93.90;;;;;;5073208;28;20489;-70
2023/11/18 03:43:18;;;;;;;4.67;2.77;;;7.20;93.80;;;;;;5073242;28;20372;-70
2023/11/18 03:45:44;;;;;;;4.03;2.03;;;7.20;94.00;;;;;;5071942;28;20029;-70
2023/11/18 03:48:14;;;;;;;3.70;2.03;;;7.20;94.10;;;;;;5071854;28;20028;-70
2023/11/18 03:50:40;;;;;;;4.40;1.60;;;7.20;94.00;;;;;;5073077;28;20032;-69
2023/11/18 03:53:06;;;;;;;3.30;1.80;;;7.10;94.10;;;;;;5072813;28;20021;-70
2023/11/18 03:55:32;;;;;;;3.67;1.93;;;7.10;94.20;;;;;;5072922;28;20039;-70
2023/11/18 03:57:57;;;;;;;3.63;1.77;;;7.10;94.20;;;;;;5073191;28;20372;-69
2023/11/18 04:00:29;;;;;;;2.13;1.57;;;7.10;94.30;;;;;;5073198;28;20024;-70
2023/11/18 04:02:56;;;;;;;4.63;1.73;;;7.10;94.30;;;;;;5073244;28;20028;-69
2023/11/18 04:05:22;;;;;;;6.00;2.63;;;7.00;94.20;;;;;;5072499;28;20029;-70
2023/11/18 04:07:48;;;;;;;2.67;1.50;;;7.00;94.40;;;;;;5105614;28;20166;-70
2023/11/18 04:10:15;;;;;;;3.20;1.50;;;7.10;94.30;;;;;;5072879;28;20070;-70
2023/11/18 04:12:41;;;;;;;3.17;1.50;;;7.00;94.00;;;;;;5072874;28;20032;-70
2023/11/18 04:15:08;;;;;;;3.50;1.23;;;7.00;94.00;;;;;;5072903;28;20123;-70
2023/11/18 04:17:34;;;;;;;2.30;1.10;;;7.10;94.20;;;;;;5072963;28;20024;-69
2023/11/18 04:19:59;;;;;;;2.27;1.17;;;7.00;94.20;;;;;;5072735;28;20108;-70
2023/11/18 04:22:25;;;;;;;2.37;1.17;;;7.00;93.90;;;;;;5072893;28;20032;-70
2023/11/18 04:24:51;;;;;;;4.80;1.97;;;7.00;93.80;;;;;;5072757;28;20085;-70
2023/11/18 04:27:17;;;;;;;5.20;1.40;;;7.00;94.20;;;;;;5090663;28;20028;-69
2023/11/18 04:29:42;;;;;;;3.83;1.50;;;7.00;93.80;;;;;;5092598;28;20051;-69
2023/11/18 04:32:08;;;;;;;5.17;1.87;;;7.00;93.80;;;;;;5092883;28;20020;-70
2023/11/18 04:34:37;;;;;;;2.83;1.33;;;7.00;93.70;;;;;;5092781;28;20071;-69
2023/11/18 04:37:06;;;;;;;4.60;1.80;;;6.90;93.70;;;;;;5092575;28;20024;-70
2023/11/18 04:39:35;;;;;;;2.40;1.50;;;6.90;93.80;;;;;;5092613;28;20024;-69
2023/11/18 04:42:03;;;;;;;3.13;1.90;;;6.90;93.60;;;;;;5092709;28;20028;-69
2023/11/18 04:44:31;;;;;;;4.80;2.00;;;6.80;93.80;;;;;;5092779;28;20032;-69
2023/11/18 04:46:57;;;;;;;3.43;1.87;;;6.70;93.80;;;;;;5092547;28;20023;-70
2023/11/18 04:49:22;;;;;;;5.23;1.53;;;6.70;93.90;;;;;;5081213;28;20029;-70
2023/11/18 04:51:48;;;;;;;2.77;1.53;;;6.70;94.00;;;;;;5083067;28;20020;-69
2023/11/18 04:54:14;;;;;;;4.57;1.80;;;6.60;94.10;;;;;;5084867;28;20083;-70
2023/11/18 04:56:40;;;;;;;7.50;1.80;;;6.60;94.40;;;;;;5086126;28;20029;-69
2023/11/18 04:59:06;;;;;;;2.63;1.50;;;6.50;94.50;;;;;;5085239;28;20502;-69
2023/11/18 05:01:32;;;;;;;4.90;1.70;;;6.50;94.50;;;;;;5083703;28;20017;-70
2023/11/18 05:03:59;;;;;;;2.17;1.30;;;6.50;94.50;;;;;;5072510;28;20095;-70
2023/11/18 05:06:25;;;;;;;5.13;1.60;;;6.50;94.50;;;;;;5072319;28;20025;-69
2023/11/18 05:08:52;;;;;;;3.30;1.47;;;6.50;94.40;;;;;;5072384;28;20052;-69
2023/11/18 05:11:18;;;;;;;3.33;1.67;;;6.50;94.30;;;;;;5072251;28;20024;-69
2023/11/18 05:13:44;;;;;;;5.10;1.50;;;6.50;94.30;;;;;;5075830;28;20058;-69
2023/11/18 05:16:12;;;;;;;6.60;1.93;;;6.50;94.10;;;;;;5086180;28;20061;-70
2023/11/18 05:18:38;;;;;;;2.63;1.57;;;6.40;94.20;;;;;;5074862;28;20029;-69
2023/11/18 05:21:05;;;;;;;3.57;1.97;;;6.40;94.20;;;;;;5071942;28;20017;-69
2023/11/18 05:23:31;;;;;;;4.43;1.70;;;6.40;94.30;;;;;;5072011;28;20025;-69
2023/11/18 05:25:58;;;;;;;3.00;1.67;;;6.40;94.40;;;;;;5071962;28;20029;-69
2023/11/18 05:28:24;;;;;;;6.40;1.47;;;6.40;94.40;;;;;;5074731;28;20103;-70
2023/11/18 05:30:51;;;;;;;2.93;1.13;;;6.40;94.40;;;;;;5080663;28;20033;-70
2023/11/18 05:33:17;;;;;;;5.03;1.97;;;6.40;94.30;;;;;;5071774;28;20095;-70
2023/11/18 05:35:49;;;;;;;7.27;3.30;;;6.50;94.20;;;;;;5071914;28;20032;-70
2023/11/18 05:38:21;;;;;;;11.37;2.40;;;6.50;94.10;;;;;;5072053;28;20020;-70
2023/11/18 05:40:56;;;;;;;3.95;1.73;;;6.50;93.80;;;;;;5073309;28;20496;-69
2023/11/18 05:43:29;;;;;;;5.87;2.00;;;6.50;93.80;;;;;;5075736;28;20093;-70
2023/11/18 05:48:42;;;;;;;4.07;2.17;;;6.40;93.90;;;;;;5094579;27;20025;-70
2023/11/18 05:51:08;;;;;;;6.60;2.50;;;6.40;94.00;;;;;;5083879;28;20027;-70
2023/11/18 05:53:35;;;;;;;5.67;2.83;;;6.30;94.10;;;;;;5075366;28;20025;-70
2023/11/18 05:56:02;;;;;;;4.60;2.67;;;6.30;94.40;;;;;;5075555;28;20083;-70
2023/11/18 05:58:28;;;;;;;6.70;3.00;;;6.30;94.50;;;;;;5075195;28;20082;-70
2023/11/18 06:00:54;;;;;;;7.40;3.10;;;6.20;94.60;;;;;;5081625;28;20087;-69
2023/11/18 06:03:20;;;;;;;7.03;3.63;;;6.20;94.60;;;;;;5087372;28;20100;-70
2023/11/18 06:05:46;;;;;;;5.07;3.00;;;6.20;94.70;;;;;;5074855;28;20029;-69
2023/11/18 06:08:12;;;;;;;6.23;3.17;;;6.20;94.80;;;;;;5074862;28;20029;-70
2023/11/18 06:10:38;;;;;;;6.43;2.90;;;6.20;94.80;;;;;;5073689;28;20326;-70
2023/11/18 06:13:04;;;;;;;6.30;2.90;;;6.20;94.90;;;;;;5074739;28;20392;-70
2023/11/18 06:15:30;;;;;;;7.87;2.67;;;6.20;95.10;;;;;;5074947;28;20024;-69
2023/11/18 06:17:56;;;;;;;8.00;2.70;;;6.20;95.10;;;;;;5074921;28;20077;-70
2023/11/18 06:20:23;;;;;;;4.43;2.90;;;6.10;95.10;;;;;;5075189;28;20021;-70
2023/11/18 06:22:49;;;;;;;10.07;3.73;;;6.10;95.10;;;;;;5074649;28;20024;-70
2023/11/18 06:25:16;;;;;;;6.53;3.60;;;6.10;95.20;;;;;;5074787;28;20028;-71
2023/11/18 06:27:45;;;;;;;6.53;3.40;;;6.10;95.50;;;;;;5077185;28;20028;-70
2023/11/18 06:30:12;;;;;;;5.37;3.47;;;6.10;95.20;;;;;;5081895;28;20020;-70
2023/11/18 06:32:38;;;;;;;5.97;3.27;;;6.10;95.20;;;;;;5074355;28;20047;-70
2023/11/18 06:35:05;;;;;;;9.77;3.73;;;6.00;95.50;;;;;;5074477;28;20027;-70
2023/11/18 06:37:34;;;;;;;7.63;4.43;;;6.00;95.40;;;;;;5074815;28;20012;-71
2023/11/18 06:40:00;;;;;;;10.47;5.80;;;6.00;95.50;;;;;;5074086;28;20086;-71
2023/11/18 06:42:27;;;;;;;9.03;5.57;;;6.00;95.60;;;;;;5074293;28;20087;-70
2023/11/18 06:44:53;;;;;;;7.60;4.30;;;6.00;95.70;;;;;;5074009;28;20036;-71
2023/11/18 06:47:19;;;;;;;8.40;3.67;;;6.00;95.70;;;;;;5083836;28;20492;-71
2023/11/18 06:49:47;;;;;;;6.03;2.90;;;6.00;95.80;;;;;;5073802;28;20103;-71
2023/11/18 06:52:13;;;;;;;7.23;3.50;;;6.00;95.80;;;;;;5076937;28;20032;-70
2023/11/18 06:54:41;;;;;;;6.50;3.03;;;6.10;95.70;;;;;;5083141;28;20059;-72
2023/11/18 06:57:07;;;;;;;8.87;3.87;;;6.10;95.30;;;;;;5074083;28;20028;-71
2023/11/18 06:59:33;;;;;;;9.50;4.30;;;6.20;95.40;;;;;;5074305;28;20028;-71
2023/11/18 07:01:59;;;;;;;8.43;3.60;;;6.20;95.50;;;;;;5073958;28;20027;-71
2023/11/18 07:04:25;;;;;;;9.80;3.83;;;6.20;95.50;;;;;;5074192;28;20452;-71
2023/11/18 07:06:51;;;;;;;12.03;3.60;;;6.20;95.40;;;;;;5072840;28;20559;-71
2023/11/18 07:09:20;;;;;;;10.27;3.57;;;6.20;95.50;;;;;;5073854;28;20063;-71
2023/11/18 07:11:47;;;;;;;11.07;3.63;;;6.30;95.70;;;;;;5074184;28;20023;-71
2023/11/18 07:14:17;;;;;;;17.97;3.20;;;6.30;95.90;;;;;;5073797;28;20033;-70
2023/11/18 07:16:44;;;;;;;9.33;3.13;;;6.30;96.00;;;;;;5073810;28;20103;-71
2023/11/18 07:19:14;;;;;;;9.97;3.40;;;6.40;96.20;;;;;;5071533;28;20384;-71
2023/11/18 07:21:41;;;;;;;7.43;3.70;;;6.50;95.80;;;;;;5073233;28;20025;-71
2023/11/18 07:24:07;;;;;;;9.37;4.03;;;6.50;95.90;;;;;;5073494;28;20028;-71
2023/11/18 07:26:32;;;;;;;12.17;4.10;;;6.50;95.80;;;;;;5073354;28;20029;-71
2023/11/18 07:28:58;;;;;;;9.07;4.60;;;6.60;95.80;;;;;;5073105;28;20035;-70
2023/11/18 07:31:24;;;;;;;14.30;3.90;;;6.60;95.90;;;;;;5071592;28;20107;-71
2023/11/18 07:33:50;;;;;;;6.77;3.63;;;6.60;96.00;;;;;;5073111;28;20110;-71
2023/11/18 07:36:19;;;;;;;12.87;4.60;;;6.70;96.10;;;;;;5072767;28;20059;-71
2023/11/18 07:38:45;;;;;;;8.37;4.73;;;6.70;96.20;;;;;;5073279;28;20464;-71
2023/11/18 07:41:23;;;;;;;8.07;4.60;;;6.80;96.20;;;;;;5072885;28;20095;-71
2023/11/18 07:43:50;;;;;;;7.87;4.13;;;6.90;96.30;;;;;;5073424;28;20035;-73
2023/11/18 07:46:16;;;;;;;9.60;4.30;;;6.90;96.30;;;;;;5073288;28;20024;-75
2023/11/18 07:48:42;;;;;;;9.73;4.57;;;7.00;96.40;;;;;;5073327;28;20029;-74
2023/11/18 07:51:08;;;;;;;8.07;4.40;;;7.10;96.50;;;;;;5073006;28;20017;-73
2023/11/18 07:53:34;;;;;;;7.10;4.07;;;7.10;96.80;;;;;;5072988;28;20106;-73
2023/11/18 07:56:01;;;;;;;14.33;4.07;;;7.20;96.90;;;;;;5073070;28;20099;-73
2023/11/18 07:58:27;;;;;;;11.37;4.27;;;7.30;96.90;;;;;;5071724;28;20074;-73
2023/11/18 08:00:54;;;;;;;9.27;4.07;;;7.40;96.90;;;;;;5070943;28;20021;-74
2023/11/18 08:03:20;;;;;;;15.30;4.20;;;7.40;96.90;;;;;;5070695;28;20098;-74
2023/11/18 08:05:48;;;;;;;16.23;4.00;;;7.50;96.90;;;;;;5074030;28;20048;-73
2023/11/18 08:08:17;;;;;;;17.83;4.43;;;7.50;96.90;;;;;;5092331;28;20019;-73
2023/11/18 08:10:44;;;;;;;16.50;4.80;;;7.60;96.80;;;;;;5091044;28;20483;-74
2023/11/18 08:13:11;;;;;;;7.17;3.80;;;7.60;96.90;;;;;;5092124;28;20032;-73
2023/11/18 08:15:41;;;;;;;11.57;3.80;;;7.70;96.90;;;;;;5092190;28;20039;-73
2023/11/18 08:18:10;;;;;;;9.07;3.87;;;7.70;96.90;;;;;;5092196;28;20020;-73
2023/11/18 08:20:37;;;;;;;7.33;2.80;;;7.80;97.00;;;;;;5092711;28;20031;-75
2023/11/18 08:23:04;;;;;;;11.07;4.40;;;7.80;96.90;;;;;;5092472;28;20102;-74
2023/11/18 08:25:33;;;;;;;8.27;4.20;;;7.80;96.90;;;;;;5091203;28;20022;-73
2023/11/18 08:28:00;;;;;;;5.13;3.83;;;7.90;97.10;;;;;;5090468;28;20020;-73
2023/11/18 08:30:26;;;;;;;9.67;4.07;;;8.00;97.30;;;;;;5088910;28;20023;-74
2023/11/18 08:32:52;;;;;;;8.53;4.50;;;8.00;97.50;;;;;;5089902;28;20581;-73
2023/11/18 08:35:18;;;;;;;10.13;4.00;;;8.10;97.50;;;;;;5089259;28;20055;-72
2023/11/18 08:37:45;;;;;;;7.67;3.93;;;8.10;97.60;;;;;;5090512;28;20016;-74
2023/11/18 08:40:15;;;;;;;5.87;3.63;;;8.20;97.60;;;;;;5090836;28;20024;-73
2023/11/18 08:42:50;;;;;;;5.30;3.33;;;8.20;97.40;;;;;;5092307;28;20023;-73
2023/11/18 08:45:17;;;;;;;6.80;3.43;;;8.30;97.10;;;;;;5092407;28;20028;-72
2023/11/18 08:47:49;;;;;;;7.67;3.73;;;8.30;97.10;;;;;;5092429;28;20020;-73
2023/11/18 08:50:16;;;;;;;9.85;4.30;;;8.40;97.10;;;;;;5090988;28;20031;-73
2023/11/18 08:52:43;;;;;;;8.93;4.63;;;8.40;97.10;;;;;;5092417;28;20187;-73
2023/11/18 08:55:19;;;;;;;8.67;3.83;;;8.40;97.10;;;;;;5092307;28;20035;-73
2023/11/18 08:57:58;;;;;;;6.87;3.37;;;8.50;97.10;;;;;;5092095;28;20028;-72
2023/11/18 09:00:46;;;;;;;6.77;3.17;;;8.50;97.10;;;;;;5091759;28;20020;-72
2023/11/18 09:03:24;;;;;;;5.73;3.47;;;8.60;97.20;;;;;;5092119;28;20097;-72
2023/11/18 09:05:57;;;;;;;4.17;2.97;;;8.60;97.10;;;;;;5091934;28;20023;-72
2023/11/18 09:08:42;;;;;;;6.07;3.53;;;8.60;96.90;;;;;;5092342;28;20089;-74
2023/11/18 09:11:17;;;;;;;12.23;3.33;;;8.70;96.90;;;;;;5091990;28;20044;-73
2023/11/18 09:13:44;;;;;;;6.87;3.40;;;8.70;96.80;;;;;;5092180;28;20551;-73
2023/11/18 09:16:11;;;;;;;7.63;3.43;;;8.80;96.80;;;;;;5094213;28;20380;-73
2023/11/18 09:18:43;;;;;;;4.17;2.53;;;8.80;96.70;;;;;;5095799;28;20016;-72
2023/11/18 09:21:14;;;;;;;12.17;3.47;;;8.90;96.80;;;;;;5095732;28;20498;-72
2023/11/18 09:23:41;;;;;;;7.83;2.63;;;9.00;96.70;;;;;;5094688;28;20484;-72
2023/11/18 09:26:08;;;;;;;9.87;2.30;;;9.10;96.50;;;;;;5095773;28;20081;-74
2023/11/18 09:28:35;;;;;;;8.00;1.77;;;9.10;95.40;;;;;;5096044;28;20376;-72
2023/11/18 09:31:02;;;;;;;4.07;2.03;;;9.10;94.90;;;;;;5095614;28;20494;-72
2023/11/18 09:33:33;;;;;;;5.43;1.80;;;9.20;94.50;;;;;;5094378;28;20040;-72
2023/11/18 09:36:07;;;;;;;3.57;1.67;;;9.20;94.00;;;;;;5096044;28;20077;-72
2023/11/18 09:38:35;;;;;;;3.90;1.97;;;9.30;93.30;;;;;;5095934;28;20058;-72
2023/11/18 09:41:07;;;;;;;3.27;1.50;;;9.40;93.00;;;;;;5093711;28;20751;-72
2023/11/18 09:43:38;;;;;;;3.53;1.40;;;9.40;92.60;;;;;;5092432;28;20032;-73
2023/11/18 09:46:12;;;;;;;4.57;1.50;;;9.50;92.20;;;;;;5091798;28;20142;-72
2023/11/18 09:48:47;;;;;;;6.27;1.70;;;9.60;91.90;;;;;;5092822;28;20020;-72
2023/11/18 09:51:24;;;;;;;5.67;2.40;;;9.60;91.60;;;;;;5092864;28;20032;-72
2023/11/18 09:53:53;;;;;;;9.43;2.80;;;9.70;91.40;;;;;;5095506;28;20032;-72
2023/11/18 09:56:26;;;;;;;4.00;2.40;;;9.80;91.80;;;;;;5095623;28;20052;-72
2023/11/18 09:59:06;;;;;;;5.88;2.70;;;9.80;91.90;;;;;;5094496;28;20028;-72
2023/11/18 10:01:38;;;;;;;7.50;2.87;;;9.90;92.20;;;;;;5095608;28;20016;-72
2023/11/18 10:04:08;;;;;;;7.03;2.77;;;10.00;92.10;;;;;;5095492;28;20432;-72
2023/11/18 10:06:35;;;;;;;6.57;2.60;;;10.10;92.10;;;;;;5094154;28;20380;-72
2023/11/18 10:09:15;;;;;;;6.17;2.70;;;10.20;92.20;;;;;;5092872;28;20032;-73
2023/11/18 10:11:47;;;;;;;4.83;2.83;;;10.20;92.20;;;;;;5101575;22;20088;-72
2023/11/18 10:14:16;;;;;;;8.30;2.42;;;10.30;92.30;;;;;;5031828;28;20046;-72
2023/11/18 10:16:48;;;;;;;3.13;1.70;;;10.40;92.50;;;;;;5033892;28;20029;-72
2023/11/18 10:19:17;;;;;;;3.80;1.73;;;10.50;92.50;;;;;;5034393;28;20033;-72
2023/11/18 10:21:43;;;;;;;3.40;1.50;;;10.60;92.00;;;;;;5034342;28;20032;-72
2023/11/18 10:24:30;;;;;;;8.03;2.33;;;10.60;91.40;;;;;;5033712;28;20034;-72
2023/11/18 10:26:58;;;;;;;3.47;2.20;;;10.60;90.90;;;;;;5029414;28;20029;-72
2023/11/18 10:29:28;;;;;;;5.33;2.40;;;10.70;90.60;;;;;;5025940;28;20511;-72
2023/11/18 10:32:09;;;;;;;9.88;3.10;;;10.70;90.80;;;;;;5034357;28;20488;-72
2023/11/18 10:34:35;;;;;;;5.28;2.40;;;10.80;91.20;;;;;;5033250;28;20040;-72
2023/11/18 10:37:03;;;;;;;7.50;3.20;;;10.80;91.20;;;;;;5034159;28;20485;-72
2023/11/18 10:39:34;;;;;;;6.05;3.00;;;10.90;91.10;;;;;;5033956;28;20029;-72
2023/11/18 10:42:01;;;;;;;5.05;3.13;;;10.90;91.10;;;;;;5034196;28;20032;-72
2023/11/18 10:44:29;;;;;;;5.18;3.22;;;10.90;91.00;;;;;;5034413;28;20076;-72
2023/11/18 10:46:59;;;;;;;8.60;3.50;;;11.00;91.10;;;;;;5034111;28;20057;-72
2023/11/18 10:49:28;;;;;;;6.45;3.40;;;11.00;91.40;;;;;;5034376;28;20476;-72
2023/11/18 10:51:56;;;;;;;5.45;3.20;;;11.00;91.00;;;;;;5034415;28;20080;-73
2023/11/18 10:54:22;;;;;;;4.97;3.42;;;11.10;91.10;;;;;;5034224;28;20065;-72
2023/11/18 10:56:49;;;;;;;6.05;2.95;;;11.10;91.10;;;;;;5031365;28;20061;-72
2023/11/18 10:59:16;;;;;;;6.43;3.33;;;11.20;91.10;;;;;;5030083;28;20062;-72
2023/11/18 11:01:43;;;;;;;3.92;2.40;;;11.20;91.10;;;;;;5033772;28;20026;-71
2023/11/18 11:04:16;;;;;;;8.32;2.72;;;11.30;91.00;;;;;;5034176;28;20071;-72
2023/11/18 11:06:53;;;;;;;7.72;2.72;;;11.40;90.90;;;;;;5033979;28;20029;-72
2023/11/18 11:09:24;;;;;;;5.55;2.67;;;11.40;90.60;;;;;;5034119;28;20041;-73
2023/11/18 11:12:16;;;;;;;4.03;2.65;;;11.50;90.30;;;;;;5033725;28;20029;-74
2023/11/18 11:15:13;;;;;;;5.13;2.20;;;11.60;90.20;;;;;;5033929;28;20034;-74
2023/11/18 11:17:42;;;;;;;5.47;2.50;;;11.70;90.20;;;;;;5033953;28;20268;-74
2023/11/18 11:20:51;;;;;;;3.58;2.17;;;11.70;89.20;;;;;;5032008;28;20112;-73
2023/11/18 11:23:32;;;;;;;4.28;1.98;;;11.80;88.60;;;;;;5027764;28;20026;-74
2023/11/18 11:26:16;;;;;;;5.75;2.20;;;11.90;87.20;;;;;;5032305;28;20382;-73
2023/11/18 11:29:06;;;;;;;2.70;1.77;;;11.90;85.90;;;;;;5033544;28;20528;-73
2023/11/18 11:31:38;;;;;;;3.50;1.98;;;12.00;81.80;;;;;;4997253;28;20029;-74
2023/11/18 11:34:31;;;;;;;4.22;2.05;;;12.00;82.40;;;;;;5032396;28;20083;-73
2023/11/18 11:37:01;;;;;;;5.45;2.00;;;12.10;83.90;;;;;;5027638;28;20056;-74
2023/11/18 11:39:29;;;;;;;5.75;2.10;;;12.00;84.70;;;;;;5030167;28;20029;-74
2023/11/18 11:41:56;;;;;;;3.28;1.90;;;12.10;85.10;;;;;;5033742;28;20018;-74
2023/11/18 11:44:29;;;;;;;3.15;2.00;;;12.10;85.40;;;;;;5033358;28;20036;-74
2023/11/18 11:46:59;;;;;;;4.00;2.00;;;12.20;86.20;;;;;;5033428;28;20021;-78
2023/11/18 11:49:30;;;;;;;19.10;2.75;;;12.20;86.30;;;;;;5033198;28;20461;-72
2023/11/18 11:52:15;;;;;;;7.72;2.00;;;12.20;86.20;;;;;;5032999;28;20024;-72
2023/11/18 11:55:13;;;;;;;4.45;1.60;;;12.20;85.90;;;;;;5032995;28;20037;-73
2023/11/18 11:57:39;;;;;;;3.92;1.60;;;12.20;84.70;;;;;;5033272;28;20057;-73
2023/11/18 12:00:15;;;;;;;2.60;1.80;;;12.20;83.90;;;;;;5033180;28;20028;-73
2023/11/18 12:03:04;;;;;;;3.90;1.90;;;12.20;83.80;;;;;;5032167;28;20041;-73
2023/11/18 12:05:33;;;;;;;4.35;1.63;;;12.20;83.90;;;;;;5025922;28;20033;-72
2023/11/18 12:07:59;;;;;;;3.85;1.73;;;12.20;83.20;;;;;;5033251;28;20021;-73
2023/11/18 12:10:31;;;;;;;5.38;1.73;;;12.20;82.50;;;;;;5033219;28;20029;-73
2023/11/18 12:13:18;;;;;;;3.25;1.73;;;12.20;82.40;;;;;;5031480;28;20053;-73
2023/11/18 12:15:59;;;;;;;3.05;1.58;;;12.30;82.40;;;;;;5030316;28;20022;-73
2023/11/18 12:18:26;;;;;;;3.33;1.70;;;12.30;81.50;;;;;;5031173;28;20029;-72
2023/11/18 12:20:55;;;;;;;4.50;1.33;;;12.30;80.90;;;;;;5032558;28;20071;-73
2023/11/18 12:23:24;;;;;;;1.92;1.25;;;12.30;80.00;;;;;;5032915;28;20108;-73
2023/11/18 12:25:57;;;;;;;3.35;1.50;;;12.40;79.80;;;;;;5032946;28;20504;-73
2023/11/18 12:28:30;;;;;;;2.53;1.90;;;12.40;80.00;;;;;;5032834;28;20030;-72
2023/11/18 12:30:57;;;;;;;3.42;1.60;;;12.40;79.90;;;;;;5032868;28;20022;-73
2023/11/18 12:33:46;;;;;;;1.98;1.50;;;12.50;79.80;;;;;;5032711;28;20076;-73
2023/11/18 12:36:31;;;;;;;2.45;1.27;;;12.50;79.50;;;;;;5031841;28;20040;-73
2023/11/18 12:39:33;;;;;;;1.83;0.88;;;12.50;79.30;;;;;;5029857;28;20021;-72
2023/11/18 12:42:06;;;;;;;1.25;0.68;;;12.50;76.90;;;;;;5029603;28;20083;-73
2023/11/18 12:44:39;;;;;;;9.43;3.00;;;12.50;72.80;;;;;;5030469;28;20049;-73
2023/11/18 12:47:18;;;;;;;7.25;1.58;;;12.60;72.40;;;;;;5032133;28;20417;-72
2023/11/18 12:49:49;;;;;;;1.73;0.88;;;12.70;74.00;;;;;;5033934;28;20109;-73
2023/11/18 12:52:18;;;;;;;5.75;1.58;;;12.60;74.30;;;;;;5036381;28;20022;-73
2023/11/18 12:54:50;;;;;;;1.95;1.05;;;12.70;74.50;;;;;;5035778;28;20060;-72
2023/11/18 12:57:22;;;;;;;2.28;1.17;;;12.70;72.20;;;;;;5036606;28;20032;-72
2023/11/18 12:59:49;;;;;;;2.22;1.00;;;12.70;67.70;;;;;;5036575;28;20036;-71
2023/11/18 13:02:23;;;;;;;10.82;1.23;;;12.80;65.50;;;;;;5036186;28;20519;-71
2023/11/18 13:04:49;;;;;;;18.98;2.08;;;12.80;66.80;;;;;;5036259;28;20064;-71
2023/11/18 13:07:19;;;;;;;5.85;1.33;;;12.80;68.40;;;;;;5034898;28;20029;-70